Time;durP1;ratioP1;P1;durP2;ratioP2;P2;SDS_P1;SDS_P2;PMS_P1;PMS_P2;Temp;Humidity;BMP_temperature;BMP_pressure;BME280_temperature;BME280_humidity;BME280_pressure;Samples;Min_cycle;Max_cycle;Signal;HPM_P1;HPM_P2
2023/05/24 00:01:26;;;;;;;7.82;6.97;;;16.30;50.70;;;;;;4970454;28;20596;-75
2023/05/24 00:03:53;;;;;;;7.43;6.72;;;16.20;50.70;;;;;;4966667;28;20050;-75
2023/05/24 00:06:26;;;;;;;7.55;6.85;;;16.30;51.00;;;;;;4980963;28;20049;-74
2023/05/24 00:08:55;;;;;;;8.95;6.80;;;16.20;50.90;;;;;;4990604;28;20396;-75
2023/05/24 00:11:21;;;;;;;8.13;6.45;;;16.10;50.90;;;;;;5000957;28;20030;-75
2023/05/24 00:13:48;;;;;;;9.20;6.97;;;16.10;51.00;;;;;;4989378;28;20041;-75
2023/05/24 00:16:14;;;;;;;9.18;6.88;;;16.10;51.20;;;;;;4992715;28;20030;-74
2023/05/24 00:18:40;;;;;;;8.90;6.55;;;16.10;51.30;;;;;;4997356;28;20053;-74
2023/05/24 00:21:07;;;;;;;8.00;6.40;;;16.10;51.40;;;;;;4990466;28;20034;-74
2023/05/24 00:23:33;;;;;;;7.45;6.72;;;16.00;51.40;;;;;;4997801;28;20046;-74
2023/05/24 00:26:04;;;;;;;7.90;6.43;;;16.00;51.50;;;;;;4993826;28;20034;-74
2023/05/24 00:28:30;;;;;;;7.80;6.47;;;16.00;51.60;;;;;;4991458;28;20037;-74
2023/05/24 00:30:57;;;;;;;9.95;7.25;;;15.90;51.50;;;;;;4981954;28;20030;-75
2023/05/24 00:33:24;;;;;;;7.63;6.63;;;15.90;51.60;;;;;;4991579;28;20045;-74
2023/05/24 00:35:55;;;;;;;7.93;6.32;;;15.80;52.10;;;;;;4993933;28;20030;-75
2023/05/24 00:38:25;;;;;;;8.00;6.70;;;15.90;51.80;;;;;;4996434;28;20038;-75
2023/05/24 00:40:56;;;;;;;7.85;6.18;;;15.80;51.70;;;;;;4993832;28;20045;-76
2023/05/24 00:43:25;;;;;;;8.30;7.10;;;15.80;51.80;;;;;;4985738;28;20050;-75
2023/05/24 00:46:29;;;;;;;9.27;7.88;;;15.70;51.70;;;;;;4988798;28;20026;-75
2023/05/24 00:48:56;;;;;;;8.50;6.35;;;15.80;52.10;;;;;;4996780;28;20183;-76
2023/05/24 00:51:25;;;;;;;6.55;5.95;;;15.70;51.70;;;;;;5000238;28;20425;-76
2023/05/24 00:53:54;;;;;;;7.25;6.28;;;15.70;51.90;;;;;;4996432;28;20622;-75
2023/05/24 00:56:20;;;;;;;8.95;6.28;;;15.70;52.00;;;;;;4997473;28;20518;-77
2023/05/24 00:58:49;;;;;;;7.00;6.25;;;15.60;51.90;;;;;;4997698;28;20433;-78
2023/05/24 01:01:16;;;;;;;11.18;7.38;;;15.60;52.00;;;;;;4992759;28;20030;-77
2023/05/24 01:03:45;;;;;;;9.23;6.68;;;15.60;52.10;;;;;;4993144;28;20041;-77
2023/05/24 01:06:14;;;;;;;8.68;6.45;;;15.50;52.00;;;;;;4996059;28;20117;-77
2023/05/24 01:09:02;;;;;;;7.88;6.32;;;15.40;52.00;;;;;;4999090;28;20040;-77
2023/05/24 01:12:05;;;;;;;8.02;6.93;;;15.50;52.30;;;;;;4998957;28;20026;-77
2023/05/24 01:14:44;;;;;;;7.75;6.85;;;15.40;52.30;;;;;;4970350;28;20054;-75
2023/05/24 01:17:17;;;;;;;8.82;7.97;;;15.40;52.30;;;;;;4989242;28;20049;-76
2023/05/24 01:20:07;;;;;;;8.77;6.85;;;15.30;52.70;;;;;;4990834;28;20049;-76
2023/05/24 01:23:14;;;;;;;9.77;7.82;;;15.30;52.40;;;;;;4982930;28;20045;-75
2023/05/24 01:25:53;;;;;;;8.57;7.00;;;15.20;52.20;;;;;;4989772;28;20073;-76
2023/05/24 01:28:33;;;;;;;8.73;7.82;;;15.20;52.10;;;;;;4989457;28;20286;-76
2023/05/24 01:31:00;;;;;;;9.07;7.40;;;15.20;52.10;;;;;;4993510;28;20097;-75
2023/05/24 01:33:29;;;;;;;10.27;7.63;;;15.20;52.30;;;;;;4999953;28;20124;-75
2023/05/24 01:36:02;;;;;;;9.85;7.70;;;15.10;52.20;;;;;;4999140;28;20026;-75
2023/05/24 01:38:28;;;;;;;8.75;7.85;;;15.20;52.50;;;;;;4999228;28;20088;-76
2023/05/24 01:41:04;;;;;;;9.02;7.45;;;15.10;52.40;;;;;;5016338;28;20043;-75
2023/05/24 01:43:46;;;;;;;9.00;6.60;;;15.10;52.50;;;;;;4994845;28;20049;-75
2023/05/24 01:46:24;;;;;;;8.90;7.68;;;15.10;52.60;;;;;;4998715;28;20046;-75
2023/05/24 01:49:05;;;;;;;10.45;7.38;;;15.00;52.40;;;;;;5003342;28;20053;-75
2023/05/24 01:51:43;;;;;;;8.10;7.22;;;15.10;52.70;;;;;;5009667;28;20494;-76
2023/05/24 01:54:12;;;;;;;10.68;7.70;;;15.00;52.60;;;;;;5001394;28;20034;-74
2023/05/24 01:56:40;;;;;;;8.57;7.50;;;14.90;52.40;;;;;;5004737;28;20574;-74
2023/05/24 01:59:07;;;;;;;8.30;6.97;;;14.90;52.60;;;;;;4997460;28;20076;-74
2023/05/24 02:01:34;;;;;;;7.95;5.70;;;14.90;52.60;;;;;;4999626;28;20367;-75
2023/05/24 02:04:02;;;;;;;10.20;7.55;;;14.90;52.80;;;;;;5002330;28;20042;-75
2023/05/24 02:06:31;;;;;;;8.18;6.85;;;14.90;52.80;;;;;;5000224;28;20026;-75
2023/05/24 02:08:57;;;;;;;10.70;6.95;;;14.80;52.70;;;;;;4983785;28;20034;-76
2023/05/24 02:11:23;;;;;;;7.30;6.18;;;14.80;52.80;;;;;;5003506;28;20030;-76
2023/05/24 02:13:58;;;;;;;7.65;6.28;;;14.80;52.90;;;;;;5002936;28;20089;-75
2023/05/24 02:16:25;;;;;;;7.60;6.05;;;14.80;53.00;;;;;;5003375;28;20042;-75
2023/05/24 02:18:52;;;;;;;10.20;6.18;;;14.70;52.90;;;;;;5004102;28;20092;-76
2023/05/24 02:21:24;;;;;;;9.15;6.32;;;14.70;53.00;;;;;;4997053;28;20088;-76
2023/05/24 02:23:51;;;;;;;10.15;6.53;;;14.70;53.00;;;;;;5004106;28;20557;-76
2023/05/24 02:26:17;;;;;;;10.20;6.53;;;14.60;53.00;;;;;;5004531;28;20030;-76
2023/05/24 02:28:43;;;;;;;8.00;6.38;;;14.60;53.10;;;;;;5001064;28;20752;-77
2023/05/24 02:31:10;;;;;;;8.98;6.13;;;14.60;53.10;;;;;;5006918;28;20044;-76
2023/05/24 02:33:36;;;;;;;9.30;6.38;;;14.60;53.20;;;;;;5007741;28;20068;-77
2023/05/24 02:36:06;;;;;;;7.45;6.03;;;14.60;53.20;;;;;;5007035;28;20037;-76
2023/05/24 02:38:32;;;;;;;6.38;5.57;;;14.60;53.30;;;;;;5006627;28;20446;-76
2023/05/24 02:40:58;;;;;;;12.43;5.65;;;14.60;53.30;;;;;;5005402;28;20073;-75
2023/05/24 02:43:28;;;;;;;10.13;5.88;;;14.50;53.20;;;;;;5006545;28;20052;-75
2023/05/24 02:45:54;;;;;;;7.90;5.82;;;14.50;53.20;;;;;;5007852;28;20030;-75
2023/05/24 02:48:20;;;;;;;8.10;5.78;;;14.50;53.30;;;;;;4999908;28;20478;-74
2023/05/24 02:50:47;;;;;;;7.05;5.70;;;14.50;53.30;;;;;;5004854;28;20042;-75
2023/05/24 02:53:14;;;;;;;5.63;4.90;;;14.40;53.20;;;;;;4983345;28;20040;-75
2023/05/24 02:55:45;;;;;;;9.00;5.72;;;14.50;53.40;;;;;;5007019;28;20084;-75
2023/05/24 02:58:16;;;;;;;9.88;6.03;;;14.50;53.50;;;;;;5003314;28;20097;-76
2023/05/24 03:00:45;;;;;;;9.95;5.10;;;14.40;53.30;;;;;;4998836;28;20102;-76
2023/05/24 03:03:12;;;;;;;7.70;5.05;;;14.40;53.40;;;;;;5001928;28;20128;-76
2023/05/24 03:05:38;;;;;;;8.10;5.63;;;14.40;53.40;;;;;;5006324;28;20063;-77
2023/05/24 03:08:05;;;;;;;6.53;4.72;;;14.30;53.30;;;;;;5007780;28;20061;-75
2023/05/24 03:10:32;;;;;;;8.88;5.47;;;14.30;53.40;;;;;;5005742;28;20480;-76
2023/05/24 03:12:58;;;;;;;7.15;4.93;;;14.30;53.40;;;;;;4999910;28;20465;-76
2023/05/24 03:15:28;;;;;;;6.97;5.00;;;14.20;53.40;;;;;;5005416;28;20032;-75
2023/05/24 03:17:55;;;;;;;5.57;4.45;;;14.20;53.40;;;;;;5005221;28;20057;-74
2023/05/24 03:20:25;;;;;;;8.13;5.63;;;14.20;53.50;;;;;;5006020;28;20048;-76
2023/05/24 03:22:51;;;;;;;8.23;5.03;;;14.20;53.60;;;;;;5000180;28;20074;-75
2023/05/24 03:25:17;;;;;;;6.15;4.65;;;14.10;53.50;;;;;;5005181;28;20030;-76
2023/05/24 03:27:44;;;;;;;6.72;4.50;;;14.10;53.60;;;;;;5004390;28;20061;-76
2023/05/24 03:30:12;;;;;;;6.85;4.35;;;14.00;53.50;;;;;;5005007;28;20442;-75
2023/05/24 03:32:50;;;;;;;6.40;4.82;;;14.00;53.50;;;;;;5003437;28;20117;-76
2023/05/24 03:35:19;;;;;;;7.50;5.10;;;14.00;53.60;;;;;;5004966;28;20159;-77
2023/05/24 03:37:55;;;;;;;7.45;4.55;;;14.00;53.60;;;;;;4991268;28;20049;-76
2023/05/24 03:40:24;;;;;;;6.60;4.47;;;13.90;53.50;;;;;;5004893;28;20131;-75
2023/05/24 03:42:54;;;;;;;10.57;4.75;;;13.90;53.50;;;;;;4988899;28;20560;-76
2023/05/24 03:45:33;;;;;;;5.78;4.20;;;13.90;53.60;;;;;;5004875;28;20128;-75
2023/05/24 03:48:00;;;;;;;7.22;4.80;;;13.90;53.60;;;;;;5000658;28;20058;-76
2023/05/24 03:50:29;;;;;;;6.10;4.88;;;13.90;53.70;;;;;;5019741;28;20030;-75
2023/05/24 03:52:56;;;;;;;8.95;4.75;;;13.90;53.70;;;;;;5003271;28;20191;-76
2023/05/24 03:55:25;;;;;;;8.43;4.38;;;13.80;53.50;;;;;;5005862;28;20038;-76
2023/05/24 03:57:55;;;;;;;9.23;4.70;;;13.90;53.70;;;;;;5000865;28;20042;-75
2023/05/24 04:00:22;;;;;;;7.32;5.18;;;13.80;53.60;;;;;;5002495;28;20120;-75
2023/05/24 04:02:49;;;;;;;8.68;5.28;;;13.80;53.60;;;;;;5004700;28;20041;-77
2023/05/24 04:05:16;;;;;;;5.22;4.00;;;13.80;54.20;;;;;;5006820;28;20092;-75
2023/05/24 04:07:44;;;;;;;7.88;4.70;;;13.80;53.70;;;;;;5004719;28;20489;-75
2023/05/24 04:10:11;;;;;;;6.45;4.15;;;13.80;53.70;;;;;;5016665;28;20096;-75
2023/05/24 04:12:40;;;;;;;8.02;5.38;;;13.80;53.70;;;;;;5005258;28;20037;-76
2023/05/24 04:15:06;;;;;;;6.15;3.75;;;13.80;53.80;;;;;;5004691;28;20266;-75
2023/05/24 04:17:33;;;;;;;7.28;4.10;;;13.70;53.50;;;;;;5005577;28;20080;-76
2023/05/24 04:20:00;;;;;;;7.03;3.90;;;13.70;53.50;;;;;;5005217;28;20223;-75
2023/05/24 04:22:29;;;;;;;5.15;3.83;;;13.70;53.50;;;;;;4998448;28;20045;-77
2023/05/24 04:24:56;;;;;;;6.47;3.00;;;13.80;53.60;;;;;;5001680;28;20104;-75
2023/05/24 04:27:29;;;;;;;7.43;3.72;;;13.70;53.50;;;;;;5005369;28;20034;-76
2023/05/24 04:29:56;;;;;;;7.90;3.72;;;13.70;53.40;;;;;;5002793;28;20037;-75
2023/05/24 04:32:30;;;;;;;5.65;3.90;;;13.70;53.40;;;;;;5000651;28;20042;-76
2023/05/24 04:34:56;;;;;;;6.32;3.85;;;13.70;53.40;;;;;;5002000;28;20033;-75
2023/05/24 04:37:23;;;;;;;4.72;3.15;;;13.70;53.40;;;;;;5004684;28;20052;-76
2023/05/24 04:39:50;;;;;;;6.03;3.47;;;13.70;53.40;;;;;;4988728;28;20113;-76
2023/05/24 04:42:16;;;;;;;6.03;3.42;;;13.70;53.40;;;;;;5005480;28;20038;-76
2023/05/24 04:44:43;;;;;;;4.97;3.15;;;13.70;53.40;;;;;;5003945;28;20065;-75
2023/05/24 04:47:11;;;;;;;5.53;3.22;;;13.70;53.40;;;;;;5003083;28;20050;-76
2023/05/24 04:49:38;;;;;;;5.72;3.28;;;13.70;53.40;;;;;;4999082;28;20060;-75
2023/05/24 04:52:05;;;;;;;6.20;3.13;;;13.70;53.40;;;;;;4999528;28;20048;-75
2023/05/24 04:54:32;;;;;;;4.72;2.78;;;13.70;53.40;;;;;;4999454;28;20045;-75
2023/05/24 04:57:24;;;;;;;8.02;3.30;;;13.70;53.40;;;;;;5000137;28;20042;-75
2023/05/24 04:59:53;;;;;;;5.57;3.10;;;13.80;53.50;;;;;;4997702;28;20544;-75
2023/05/24 05:02:21;;;;;;;6.05;3.22;;;13.80;53.40;;;;;;4993774;28;20238;-76
2023/05/24 05:04:53;;;;;;;5.60;2.95;;;13.80;53.50;;;;;;5003206;28;20038;-74
2023/05/24 05:07:19;;;;;;;8.55;3.35;;;13.80;53.50;;;;;;4995159;28;20100;-75
2023/05/24 05:09:51;;;;;;;8.50;3.72;;;13.80;53.50;;;;;;4997989;28;20602;-77
2023/05/24 05:12:37;;;;;;;4.35;3.00;;;13.90;53.90;;;;;;4978316;28;20165;-77
2023/05/24 05:15:05;;;;;;;6.07;3.13;;;13.90;54.10;;;;;;4990975;28;20160;-77
2023/05/24 05:17:31;;;;;;;4.40;2.75;;;14.00;54.50;;;;;;4994796;28;20124;-80
2023/05/24 05:19:57;;;;;;;6.13;3.28;;;14.00;54.70;;;;;;4995247;28;20437;-82
2023/05/24 05:22:24;;;;;;;4.55;2.83;;;14.10;55.30;;;;;;4991674;28;20042;-78
2023/05/24 05:24:51;;;;;;;4.47;2.83;;;14.30;56.10;;;;;;4997310;28;20099;-80
2023/05/24 05:27:19;;;;;;;3.20;2.38;;;14.50;56.70;;;;;;4995427;28;20037;-79
2023/05/24 05:29:46;;;;;;;3.85;2.40;;;14.70;56.90;;;;;;4997381;28;20088;-77
2023/05/24 05:32:12;;;;;;;3.75;2.67;;;14.90;57.20;;;;;;4995644;28;20184;-79
2023/05/24 05:34:38;;;;;;;4.65;3.20;;;15.10;57.40;;;;;;4996938;28;20046;-78
2023/05/24 05:37:04;;;;;;;6.70;2.70;;;15.40;57.70;;;;;;4996797;28;20068;-77
2023/05/24 05:39:32;;;;;;;3.97;2.55;;;15.60;57.80;;;;;;4995588;28;20053;-75
2023/05/24 05:41:58;;;;;;;9.05;2.70;;;15.80;58.00;;;;;;4988667;28;20026;-77
2023/05/24 05:44:24;;;;;;;6.57;3.40;;;16.10;58.20;;;;;;4994627;28;20054;-77
2023/05/24 05:46:50;;;;;;;4.75;2.50;;;16.20;58.00;;;;;;4996407;28;20049;-77
2023/05/24 05:49:17;;;;;;;5.93;2.85;;;16.40;57.90;;;;;;4991779;28;20513;-78
2023/05/24 05:51:46;;;;;;;3.80;2.63;;;16.60;57.90;;;;;;5009997;28;20042;-75
2023/05/24 05:54:17;;;;;;;3.22;2.90;;;16.80;57.90;;;;;;4992843;28;20092;-77
2023/05/24 05:56:46;;;;;;;5.07;2.75;;;16.90;57.60;;;;;;4989076;28;20155;-77
2023/05/24 05:59:15;;;;;;;6.07;2.97;;;17.10;57.50;;;;;;4990809;28;20029;-77
2023/05/24 06:01:44;;;;;;;5.80;2.80;;;17.30;57.50;;;;;;4992651;28;20061;-77
2023/05/24 06:04:10;;;;;;;4.47;3.10;;;17.50;57.30;;;;;;4994025;28;20049;-76
2023/05/24 06:06:37;;;;;;;5.68;3.63;;;17.70;57.20;;;;;;4995223;28;20433;-77
2023/05/24 06:09:03;;;;;;;5.07;2.72;;;17.90;57.00;;;;;;4991651;28;20080;-77
2023/05/24 06:11:30;;;;;;;5.50;2.83;;;18.20;56.90;;;;;;4996661;28;20115;-76
2023/05/24 06:13:55;;;;;;;4.95;3.08;;;18.40;56.60;;;;;;4995534;28;20515;-78
2023/05/24 06:16:25;;;;;;;5.82;2.90;;;18.70;56.50;;;;;;4994402;28;20045;-79
2023/05/24 06:18:51;;;;;;;5.60;2.78;;;19.00;56.20;;;;;;4993316;28;20033;-79
2023/05/24 06:21:20;;;;;;;5.28;3.00;;;19.40;56.60;;;;;;4989785;28;20041;-78
2023/05/24 06:23:46;;;;;;;5.53;2.75;;;19.80;55.70;;;;;;4993915;28;20140;-77
2023/05/24 06:26:12;;;;;;;4.63;2.70;;;20.30;55.60;;;;;;4991408;28;20034;-77
2023/05/24 06:28:38;;;;;;;5.78;3.30;;;20.70;55.40;;;;;;4990571;28;20026;-78
2023/05/24 06:31:04;;;;;;;6.43;2.80;;;21.10;55.10;;;;;;4995444;28;20044;-78
2023/05/24 06:33:33;;;;;;;5.95;3.10;;;21.50;54.80;;;;;;4994460;28;20228;-77
2023/05/24 06:35:59;;;;;;;4.22;2.63;;;22.00;54.70;;;;;;4996266;28;20116;-77
2023/05/24 06:38:28;;;;;;;7.82;2.92;;;22.40;54.30;;;;;;4995524;28;20303;-76
2023/05/24 06:41:04;;;;;;;7.95;3.40;;;23.00;54.50;;;;;;4995537;28;20037;-82
2023/05/24 06:43:30;;;;;;;5.38;2.92;;;23.40;54.10;;;;;;4994764;28;20037;-82
2023/05/24 06:45:56;;;;;;;6.05;2.47;;;23.80;53.80;;;;;;4997348;28;20563;-82
2023/05/24 06:48:22;;;;;;;5.15;2.78;;;24.10;53.30;;;;;;4996483;28;20053;-77
2023/05/24 06:50:48;;;;;;;10.40;3.28;;;24.60;53.30;;;;;;4996303;28;20092;-79
2023/05/24 06:53:14;;;;;;;5.95;2.60;;;24.90;52.90;;;;;;5000408;28;20092;-85
2023/05/24 06:55:43;;;;;;;5.35;2.78;;;25.30;52.30;;;;;;4999650;28;20034;-82
2023/05/24 06:58:13;;;;;;;7.13;3.00;;;25.60;51.70;;;;;;4999953;28;20061;-79
2023/05/24 07:00:41;;;;;;;8.10;3.13;;;25.90;51.00;;;;;;4997148;28;20149;-79
2023/05/24 07:03:12;;;;;;;5.47;3.03;;;26.20;50.50;;;;;;4998883;28;20038;-77
2023/05/24 07:05:38;;;;;;;4.03;2.78;;;26.40;49.80;;;;;;4996094;28;20236;-79
2023/05/24 07:08:08;;;;;;;7.22;2.97;;;26.60;49.40;;;;;;4998997;28;20127;-78
2023/05/24 07:10:35;;;;;;;5.40;2.63;;;26.90;48.70;;;;;;5000574;28;20026;-80
2023/05/24 07:13:01;;;;;;;7.03;2.83;;;27.30;48.10;;;;;;4997084;28;20689;-79
2023/05/24 07:15:27;;;;;;;6.53;2.95;;;27.70;47.50;;;;;;4996184;28;20069;-78
2023/05/24 07:17:56;;;;;;;6.80;2.85;;;28.00;46.70;;;;;;4999207;28;20038;-80
2023/05/24 07:20:28;;;;;;;8.27;3.72;;;28.30;46.10;;;;;;4997234;28;20111;-81
2023/05/24 07:22:54;;;;;;;4.85;2.15;;;28.50;45.80;;;;;;4993648;28;20080;-80
2023/05/24 07:25:21;;;;;;;4.78;2.85;;;28.60;45.50;;;;;;5001594;28;20045;-80
2023/05/24 07:27:47;;;;;;;6.20;2.63;;;28.50;45.40;;;;;;5001355;28;20042;-77
2023/05/24 07:30:14;;;;;;;4.93;2.30;;;28.40;45.50;;;;;;4998151;28;20033;-82
2023/05/24 07:32:43;;;;;;;4.38;2.50;;;28.30;45.50;;;;;;4994887;28;20120;-80
2023/05/24 07:35:12;;;;;;;3.95;2.40;;;28.30;45.50;;;;;;4993089;28;20452;-80
2023/05/24 07:37:41;;;;;;;6.32;3.08;;;28.30;45.40;;;;;;4998347;28;20034;-82
2023/05/24 07:40:11;;;;;;;8.60;3.10;;;28.50;44.80;;;;;;4996956;28;20064;-82
2023/05/24 07:43:00;;;;;;;5.43;2.60;;;28.90;44.10;;;;;;4991571;28;20442;-81
2023/05/24 07:45:26;;;;;;;6.30;2.78;;;29.20;43.30;;;;;;5006588;28;20038;-78
2023/05/24 07:47:52;;;;;;;4.40;2.30;;;29.50;42.80;;;;;;4998322;28;20064;-78
2023/05/24 07:50:18;;;;;;;5.38;2.78;;;29.70;42.40;;;;;;4997272;28;20038;-78
2023/05/24 07:52:44;;;;;;;3.67;2.40;;;29.90;42.10;;;;;;4996742;28;20169;-79
2023/05/24 07:55:11;;;;;;;5.07;3.35;;;30.00;41.90;;;;;;5002450;28;20034;-78
2023/05/24 07:57:37;;;;;;;7.00;2.85;;;30.00;41.80;;;;;;4989707;28;20448;-79
2023/05/24 08:00:13;;;;;;;4.57;2.80;;;29.90;41.80;;;;;;5006605;28;20029;-77
2023/05/24 08:02:44;;;;;;;6.47;3.40;;;29.90;41.90;;;;;;4996327;28;20491;-78
2023/05/24 08:05:12;;;;;;;4.22;2.83;;;29.80;41.80;;;;;;4997829;28;20108;-78
2023/05/24 08:07:39;;;;;;;5.18;2.40;;;29.70;42.70;;;;;;5013359;28;20057;-80
2023/05/24 08:10:06;;;;;;;5.03;3.28;;;29.50;42.30;;;;;;5003440;28;20114;-83
2023/05/24 08:12:35;;;;;;;4.40;2.90;;;29.30;42.50;;;;;;4991646;28;20041;-83
2023/05/24 08:15:01;;;;;;;6.63;2.88;;;29.10;42.80;;;;;;4995097;28;20034;-82
2023/05/24 08:17:30;;;;;;;4.35;2.70;;;28.90;42.90;;;;;;4998611;28;20508;-80
2023/05/24 08:19:56;;;;;;;5.50;2.80;;;28.70;43.00;;;;;;4992969;28;20042;-82
2023/05/24 08:22:28;;;;;;;3.38;2.13;;;28.50;43.10;;;;;;4990309;28;20033;-80
2023/05/24 08:24:54;;;;;;;6.50;2.63;;;28.40;43.30;;;;;;4994634;28;20358;-84
2023/05/24 08:27:21;;;;;;;3.60;2.45;;;28.30;43.40;;;;;;4995683;28;20030;-81
2023/05/24 08:29:47;;;;;;;6.00;3.05;;;28.20;43.50;;;;;;5004783;28;20081;-80
2023/05/24 08:32:13;;;;;;;4.90;2.50;;;28.10;43.50;;;;;;4994388;28;20121;-79
2023/05/24 08:34:39;;;;;;;4.40;2.42;;;28.00;43.60;;;;;;4995801;28;20548;-79
2023/05/24 08:37:08;;;;;;;3.60;2.28;;;27.90;43.60;;;;;;4997550;28;20348;-78
2023/05/24 08:39:34;;;;;;;4.57;2.63;;;27.90;43.70;;;;;;4994553;28;20462;-78
2023/05/24 08:42:02;;;;;;;3.78;2.40;;;27.80;43.70;;;;;;4998175;28;20315;-79
2023/05/24 08:44:30;;;;;;;5.18;2.70;;;27.80;43.80;;;;;;4995260;28;20069;-77
2023/05/24 08:47:00;;;;;;;9.00;2.67;;;27.80;43.80;;;;;;5005583;28;20185;-78
2023/05/24 08:49:29;;;;;;;4.40;2.60;;;27.80;43.90;;;;;;4997704;28;20033;-77
2023/05/24 08:51:56;;;;;;;3.33;2.20;;;27.80;43.80;;;;;;4995332;28;20087;-77
2023/05/24 08:54:41;;;;;;;5.28;2.45;;;27.80;43.80;;;;;;4996407;28;20072;-77
2023/05/24 08:57:09;;;;;;;5.20;2.40;;;27.80;43.80;;;;;;4996189;28;20104;-79
2023/05/24 08:59:38;;;;;;;3.65;2.80;;;27.80;43.80;;;;;;4993009;28;20097;-79
2023/05/24 09:02:05;;;;;;;4.35;2.30;;;27.80;43.80;;;;;;4988347;28;20485;-79
2023/05/24 09:04:38;;;;;;;3.78;2.45;;;27.80;43.70;;;;;;4994868;28;20080;-77
2023/05/24 09:07:08;;;;;;;4.00;2.40;;;27.80;43.70;;;;;;4993001;28;20038;-78
2023/05/24 09:09:43;;;;;;;5.32;2.47;;;27.90;43.70;;;;;;4988035;28;20038;-78
2023/05/24 09:12:13;;;;;;;5.05;2.47;;;27.90;43.70;;;;;;4992275;28;20041;-78
2023/05/24 09:14:45;;;;;;;4.18;2.30;;;27.90;43.60;;;;;;4994402;28;20592;-78
2023/05/24 09:17:15;;;;;;;5.45;2.70;;;27.90;43.60;;;;;;4990968;28;20117;-78
2023/05/24 09:19:48;;;;;;;5.75;2.72;;;27.90;43.60;;;;;;4988698;28;20034;-80
2023/05/24 09:22:19;;;;;;;3.22;2.33;;;27.90;43.50;;;;;;4988304;28;20719;-79
2023/05/24 09:24:49;;;;;;;4.57;2.60;;;28.00;43.40;;;;;;4996513;28;20091;-79
2023/05/24 09:27:16;;;;;;;4.70;2.25;;;28.00;43.30;;;;;;4993953;28;20117;-79
2023/05/24 09:29:47;;;;;;;4.32;2.50;;;28.00;43.20;;;;;;4996880;28;20035;-80
2023/05/24 09:32:14;;;;;;;3.13;2.50;;;28.10;43.20;;;;;;4992264;28;20041;-80
2023/05/24 09:34:42;;;;;;;4.60;2.40;;;28.10;43.10;;;;;;5008742;28;20049;-79
2023/05/24 09:37:17;;;;;;;5.70;2.33;;;28.20;43.10;;;;;;4995582;28;20049;-80
2023/05/24 09:39:44;;;;;;;5.80;3.17;;;28.20;43.10;;;;;;4995672;28;20331;-80
2023/05/24 09:42:19;;;;;;;5.28;2.45;;;28.20;43.00;;;;;;4973515;28;20211;-79
2023/05/24 09:44:47;;;;;;;3.92;2.50;;;28.20;42.90;;;;;;4998669;28;20057;-79
2023/05/24 09:47:14;;;;;;;4.32;2.38;;;28.30;42.90;;;;;;4993197;28;20468;-79
2023/05/24 09:49:40;;;;;;;2.88;2.60;;;28.30;42.80;;;;;;5009458;28;20046;-79
2023/05/24 09:52:06;;;;;;;3.88;2.13;;;28.40;42.80;;;;;;4995742;28;20484;-80
2023/05/24 09:54:35;;;;;;;4.20;2.60;;;28.40;42.80;;;;;;4995305;28;20037;-79
2023/05/24 09:57:03;;;;;;;4.25;2.38;;;28.40;42.60;;;;;;4989070;28;20505;-78
2023/05/24 09:59:35;;;;;;;3.22;2.00;;;28.50;42.70;;;;;;4994614;28;20080;-78
2023/05/24 10:02:11;;;;;;;;;;;28.50;42.50;;;;;;4989185;28;20037;-78
2023/05/24 10:04:40;;;;;;;3.40;2.65;;;28.60;42.60;;;;;;4995785;28;19927;-78
2023/05/24 10:07:07;;;;;;;4.05;2.40;;;28.60;42.60;;;;;;4989168;28;20030;-78
2023/05/24 10:09:36;;;;;;;3.92;2.40;;;28.70;42.50;;;;;;4999394;28;20112;-77
2023/05/24 10:12:24;;;;;;;3.28;2.00;;;28.70;42.40;;;;;;4976032;28;20172;-78
2023/05/24 10:15:00;;;;;;;3.53;1.95;;;28.70;42.40;;;;;;4991415;28;20155;-77
2023/05/24 10:17:29;;;;;;;2.92;2.30;;;28.80;42.30;;;;;;4996404;28;20513;-78
2023/05/24 10:20:03;;;;;;;5.63;2.85;;;28.80;42.20;;;;;;4991833;28;20057;-77
2023/05/24 10:22:31;;;;;;;4.45;2.28;;;28.90;42.20;;;;;;4994089;28;20288;-78
2023/05/24 10:24:58;;;;;;;3.47;2.03;;;28.90;42.10;;;;;;4994335;28;20520;-78
2023/05/24 10:27:30;;;;;;;7.07;2.53;;;29.00;42.00;;;;;;4989655;28;20276;-78
2023/05/24 10:30:33;;;;;;;3.25;2.58;;;29.00;42.00;;;;;;4995691;28;20104;-77
2023/05/24 10:33:01;;;;;;;3.10;2.33;;;29.00;41.80;;;;;;4993652;28;20120;-78
2023/05/24 10:35:36;;;;;;;4.15;2.17;;;29.10;42.00;;;;;;4998641;28;20410;-78
2023/05/24 10:38:07;;;;;;;3.35;2.47;;;29.20;41.90;;;;;;4994004;28;20148;-78
2023/05/24 10:40:33;;;;;;;3.90;2.10;;;29.10;41.80;;;;;;4997729;28;20184;-77
2023/05/24 10:43:03;;;;;;;3.10;2.33;;;29.20;41.70;;;;;;4997906;28;20559;-77
2023/05/24 10:45:39;;;;;;;3.35;2.33;;;29.20;41.50;;;;;;4995688;28;20465;-78
2023/05/24 10:48:12;;;;;;;3.40;2.67;;;29.30;41.50;;;;;;4986744;28;20802;-78
2023/05/24 10:50:39;;;;;;;4.72;2.33;;;29.30;41.40;;;;;;4995650;28;20127;-78
2023/05/24 10:53:12;;;;;;;3.08;1.98;;;29.40;41.40;;;;;;4992605;28;20456;-78
2023/05/24 10:55:59;;;;;;;5.93;2.78;;;29.50;41.30;;;;;;4993969;28;20040;-80
2023/05/24 10:58:53;;;;;;;3.15;2.03;;;29.50;41.10;;;;;;4994570;28;20042;-79
2023/05/24 11:01:32;;;;;;;4.25;2.40;;;29.60;41.10;;;;;;4990226;28;20045;-80
2023/05/24 11:04:15;;;;;;;3.47;2.47;;;29.70;41.10;;;;;;4994919;28;20041;-79
2023/05/24 11:06:54;;;;;;;3.10;2.08;;;29.70;40.90;;;;;;5008669;28;20527;-82
2023/05/24 11:09:21;;;;;;;4.80;2.33;;;29.80;40.90;;;;;;5000567;28;20041;-82
2023/05/24 11:11:49;;;;;;;3.70;2.03;;;29.90;41.00;;;;;;4982292;28;20037;-81
2023/05/24 11:14:26;;;;;;;4.53;2.75;;;30.10;40.90;;;;;;4988342;28;20030;-81
2023/05/24 11:16:52;;;;;;;5.05;2.58;;;30.20;40.50;;;;;;4997005;28;20038;-81
2023/05/24 11:19:19;;;;;;;5.22;2.53;;;30.40;40.40;;;;;;4994201;28;20034;-82
2023/05/24 11:21:47;;;;;;;4.50;2.55;;;30.60;40.10;;;;;;4986203;28;20791;-81
2023/05/24 11:24:16;;;;;;;2.75;2.47;;;30.70;39.90;;;;;;5007806;28;20046;-80
2023/05/24 11:26:45;;;;;;;3.90;2.67;;;30.90;39.80;;;;;;4999893;28;20548;-80
2023/05/24 11:29:16;;;;;;;3.88;2.30;;;31.10;39.60;;;;;;4981451;28;20826;-81
2023/05/24 11:31:49;;;;;;;3.33;2.35;;;31.20;39.50;;;;;;4997015;28;20033;-80
2023/05/24 11:34:16;;;;;;;3.55;2.35;;;31.30;39.20;;;;;;4998830;28;20438;-82
2023/05/24 11:36:43;;;;;;;4.65;2.50;;;31.50;39.20;;;;;;4997341;28;20030;-80
2023/05/24 11:39:10;;;;;;;3.63;2.60;;;31.60;39.00;;;;;;4996159;28;20541;-82
2023/05/24 11:41:39;;;;;;;4.70;3.13;;;31.70;38.80;;;;;;5000044;28;20283;-82
2023/05/24 11:44:07;;;;;;;3.30;2.35;;;31.80;38.60;;;;;;4999690;28;20097;-82
2023/05/24 11:46:33;;;;;;;4.10;2.97;;;31.90;38.60;;;;;;4998721;28;20493;-83
2023/05/24 11:49:05;;;;;;;3.75;3.00;;;32.00;38.60;;;;;;5001215;28;20045;-82
2023/05/24 11:51:33;;;;;;;3.30;2.60;;;32.10;38.50;;;;;;4994723;28;20034;-82
2023/05/24 11:54:00;;;;;;;2.97;2.33;;;32.10;38.30;;;;;;4998466;28;20026;-82
2023/05/24 11:56:29;;;;;;;4.05;2.55;;;32.20;38.20;;;;;;4998409;28;20038;-82
2023/05/24 11:59:07;;;;;;;3.05;2.42;;;32.20;38.00;;;;;;4998488;28;20046;-82
2023/05/24 12:01:36;;;;;;;3.22;2.33;;;32.30;37.90;;;;;;4994598;28;20440;-81
2023/05/24 12:04:08;;;;;;;3.15;2.63;;;32.40;38.00;;;;;;4997720;28;20034;-82
2023/05/24 12:06:36;;;;;;;3.55;2.38;;;32.50;37.90;;;;;;4994973;28;20286;-81
2023/05/24 12:09:09;;;;;;;2.75;2.15;;;32.60;37.90;;;;;;4991378;28;20046;-81
2023/05/24 12:11:40;;;;;;;4.18;2.20;;;32.70;37.80;;;;;;4995803;28;20041;-82
2023/05/24 12:14:11;;;;;;;3.35;2.30;;;32.80;37.70;;;;;;4997666;28;20068;-82
2023/05/24 12:16:38;;;;;;;4.60;2.83;;;32.90;37.70;;;;;;4996252;28;20034;-82
2023/05/24 12:19:05;;;;;;;2.72;2.35;;;33.00;37.70;;;;;;5003037;28;20037;-83
2023/05/24 12:21:32;;;;;;;3.67;2.53;;;33.00;37.50;;;;;;4987944;28;20034;-83
2023/05/24 12:24:18;;;;;;;3.75;3.15;;;33.20;37.60;;;;;;4992352;28;20540;-82
2023/05/24 12:26:46;;;;;;;2.17;1.98;;;33.20;38.00;;;;;;4991110;28;20095;-82
2023/05/24 12:29:22;;;;;;;3.28;2.25;;;33.30;37.30;;;;;;4991512;28;20060;-84
2023/05/24 12:31:48;;;;;;;3.58;2.17;;;33.40;37.30;;;;;;4994343;28;20436;-83
2023/05/24 12:34:17;;;;;;;4.53;2.45;;;33.50;37.20;;;;;;4992117;28;20082;-84
2023/05/24 12:36:45;;;;;;;3.97;2.40;;;33.60;37.10;;;;;;4991628;28;20041;-81
2023/05/24 12:39:34;;;;;;;3.80;2.55;;;33.70;37.10;;;;;;4989942;28;20030;-80
2023/05/24 12:42:00;;;;;;;2.78;1.90;;;33.80;36.80;;;;;;4989122;28;20037;-82
2023/05/24 12:44:32;;;;;;;4.47;2.30;;;33.90;36.90;;;;;;4990629;28;20054;-81
2023/05/24 12:47:00;;;;;;;3.92;2.47;;;34.00;36.80;;;;;;4991160;28;20464;-83
2023/05/24 12:49:30;;;;;;;4.53;2.42;;;34.10;36.70;;;;;;4995008;28;20042;-81
2023/05/24 12:51:56;;;;;;;3.45;2.55;;;34.20;36.70;;;;;;4988734;28;20034;-81
2023/05/24 12:54:25;;;;;;;3.88;2.42;;;34.30;36.60;;;;;;4992606;28;20034;-82
2023/05/24 12:56:52;;;;;;;3.33;2.20;;;34.40;36.50;;;;;;4996622;28;20170;-80
2023/05/24 12:59:18;;;;;;;2.67;2.22;;;34.50;36.40;;;;;;4975247;28;20040;-81